Time;durP1;ratioP1;P1;durP2;ratioP2;P2;SDS_P1;SDS_P2;PMS_P1;PMS_P2;Temp;Humidity;BMP_temperature;BMP_pressure;BME280_temperature;BME280_humidity;BME280_pressure;Samples;Min_cycle;Max_cycle;Signal;HPM_P1;HPM_P2
2024/04/02 00:00:10;;;;;;;6.13;5.93;;;11.00;26.20;;;;;;4890363;29;20205;-79
2024/04/02 00:02:35;;;;;;;5.97;5.77;;;10.90;26.30;;;;;;4882653;29;20269;-79
2024/04/02 00:05:01;;;;;;;5.50;5.30;;;10.90;26.60;;;;;;4882552;29;20474;-78
2024/04/02 00:07:26;;;;;;;5.70;5.50;;;10.80;26.90;;;;;;4882098;29;20196;-79
2024/04/02 00:09:52;;;;;;;5.77;5.57;;;10.70;26.80;;;;;;4881466;29;20186;-79
2024/04/02 00:12:17;;;;;;;5.10;4.90;;;10.70;27.10;;;;;;4881932;29;20202;-79
2024/04/02 00:14:42;;;;;;;5.03;4.93;;;10.60;27.20;;;;;;4888690;29;20197;-79
2024/04/02 00:17:08;;;;;;;5.00;4.90;;;10.80;27.20;;;;;;4886455;29;20194;-78
2024/04/02 00:19:33;;;;;;;5.20;5.00;;;10.90;26.70;;;;;;4892454;29;20558;-78
2024/04/02 00:21:59;;;;;;;5.90;5.50;;;10.80;26.60;;;;;;4881980;29;20201;-78
2024/04/02 00:24:24;;;;;;;5.60;5.40;;;10.80;26.70;;;;;;4888274;29;20229;-80
2024/04/02 00:26:50;;;;;;;5.27;5.07;;;10.90;27.10;;;;;;4896190;29;20233;-79
2024/04/02 00:29:17;;;;;;;5.77;5.57;;;10.80;26.20;;;;;;4881812;29;20209;-78
2024/04/02 00:31:43;;;;;;;5.43;5.30;;;10.80;27.00;;;;;;4889553;29;20745;-79
2024/04/02 00:34:08;;;;;;;5.83;5.63;;;10.70;26.70;;;;;;4881649;29;20490;-78
2024/04/02 00:36:34;;;;;;;5.93;5.53;;;10.70;27.00;;;;;;4881556;29;20192;-80
2024/04/02 00:38:59;;;;;;;5.50;5.40;;;10.60;26.90;;;;;;4888037;29;20241;-78
2024/04/02 00:41:24;;;;;;;5.60;5.40;;;10.50;27.00;;;;;;4884779;29;20201;-80
2024/04/02 00:43:50;;;;;;;6.00;5.70;;;10.40;27.30;;;;;;4881595;29;20703;-79
2024/04/02 00:46:16;;;;;;;6.40;6.20;;;10.40;27.50;;;;;;4889171;29;20270;-79
2024/04/02 00:48:41;;;;;;;5.90;5.70;;;10.30;27.70;;;;;;4881408;29;20565;-79
2024/04/02 00:51:07;;;;;;;5.77;5.67;;;10.20;27.80;;;;;;4882522;29;20445;-79
2024/04/02 00:53:32;;;;;;;6.17;5.97;;;10.20;27.90;;;;;;4881768;29;20214;-79
2024/04/02 00:55:59;;;;;;;5.57;5.47;;;10.20;27.90;;;;;;4889167;29;20190;-78
2024/04/02 00:58:26;;;;;;;5.90;5.70;;;10.20;27.90;;;;;;4882084;29;20209;-79
2024/04/02 01:00:55;;;;;;;5.70;5.50;;;10.20;27.80;;;;;;4880395;29;20521;-76
2024/04/02 01:03:21;;;;;;;6.30;6.10;;;10.20;27.70;;;;;;4879961;29;20829;-78
2024/04/02 01:05:47;;;;;;;6.00;5.80;;;10.20;27.80;;;;;;4886626;29;20439;-77
2024/04/02 01:08:13;;;;;;;5.90;5.70;;;10.20;27.60;;;;;;4880331;29;20268;-78
2024/04/02 01:10:38;;;;;;;6.23;6.00;;;10.20;27.60;;;;;;4880981;29;20477;-78
2024/04/02 01:13:04;;;;;;;6.17;5.97;;;10.20;27.60;;;;;;4879791;29;20210;-79
2024/04/02 01:15:29;;;;;;;5.87;5.67;;;10.20;27.50;;;;;;4879563;29;20185;-79
2024/04/02 01:17:55;;;;;;;5.73;5.53;;;10.20;27.40;;;;;;4879029;29;20258;-77
2024/04/02 01:20:21;;;;;;;6.57;6.30;;;10.20;27.20;;;;;;4883819;29;20314;-77
2024/04/02 01:22:47;;;;;;;6.20;6.00;;;10.20;27.40;;;;;;4879424;29;20661;-78
2024/04/02 01:25:12;;;;;;;5.77;5.57;;;10.10;27.50;;;;;;4889951;29;20513;-77
2024/04/02 01:27:38;;;;;;;6.30;6.10;;;10.10;27.50;;;;;;4884176;29;20696;-77
2024/04/02 01:30:04;;;;;;;6.10;5.90;;;10.10;27.50;;;;;;4885048;29;20632;-78
2024/04/02 01:32:29;;;;;;;5.57;5.47;;;10.10;27.60;;;;;;4889939;29;20250;-79
2024/04/02 01:34:56;;;;;;;5.60;5.50;;;10.10;27.70;;;;;;4890533;29;20477;-79
2024/04/02 01:37:22;;;;;;;5.90;5.70;;;9.90;28.40;;;;;;4888751;29;20202;-79
2024/04/02 01:39:47;;;;;;;5.80;5.60;;;10.00;27.90;;;;;;4889380;29;20431;-79
2024/04/02 01:42:13;;;;;;;6.23;6.03;;;10.00;27.60;;;;;;4885528;29;20505;-79
2024/04/02 01:44:38;;;;;;;5.70;5.50;;;10.00;27.60;;;;;;4885207;29;20204;-80
2024/04/02 01:47:04;;;;;;;5.77;5.67;;;10.00;27.60;;;;;;4885161;29;20212;-79
2024/04/02 01:49:29;;;;;;;5.90;5.70;;;10.00;27.90;;;;;;4887394;29;20220;-79
2024/04/02 01:51:55;;;;;;;6.17;5.97;;;10.00;28.30;;;;;;4891234;29;20250;-79
2024/04/02 01:54:20;;;;;;;6.00;5.80;;;10.00;27.60;;;;;;4891662;29;20716;-79
2024/04/02 01:56:46;;;;;;;6.43;6.20;;;10.10;27.60;;;;;;4885043;29;20201;-79
2024/04/02 01:59:11;;;;;;;6.60;6.40;;;10.20;27.20;;;;;;4883801;29;20539;-78
2024/04/02 02:01:37;;;;;;;6.50;6.30;;;10.10;27.30;;;;;;4888979;29;20201;-78
2024/04/02 02:04:02;;;;;;;5.80;5.70;;;10.00;27.50;;;;;;4886530;29;20224;-78
2024/04/02 02:06:28;;;;;;;6.73;6.53;;;9.90;28.50;;;;;;4884607;29;20205;-77
2024/04/02 02:08:53;;;;;;;6.00;5.80;;;9.80;28.80;;;;;;4891547;29;20202;-79
2024/04/02 02:11:19;;;;;;;6.73;6.43;;;9.90;29.00;;;;;;4903620;29;20221;-80
2024/04/02 02:13:44;;;;;;;6.00;5.90;;;9.90;28.80;;;;;;4885938;29;20570;-78
2024/04/02 02:16:10;;;;;;;6.47;6.27;;;9.90;28.80;;;;;;4888956;29;20228;-78
2024/04/02 02:18:35;;;;;;;6.47;6.20;;;9.90;28.90;;;;;;4888400;29;20190;-77
2024/04/02 02:21:01;;;;;;;6.40;6.00;;;9.80;28.80;;;;;;4890150;29;20241;-77
2024/04/02 02:23:26;;;;;;;6.33;6.13;;;9.80;28.90;;;;;;4888787;29;20313;-77
2024/04/02 02:25:52;;;;;;;6.57;6.37;;;9.90;28.90;;;;;;4881935;29;20268;-78
2024/04/02 02:28:18;;;;;;;6.10;5.93;;;9.90;28.80;;;;;;4882835;29;20198;-77
2024/04/02 02:30:44;;;;;;;6.43;6.23;;;9.90;29.00;;;;;;4893801;29;20439;-78
2024/04/02 02:33:10;;;;;;;6.50;6.17;;;9.80;28.90;;;;;;4886393;29;20473;-77
2024/04/02 02:35:35;;;;;;;6.47;6.27;;;9.90;29.00;;;;;;4894788;29;20197;-79
2024/04/02 02:38:01;;;;;;;6.50;6.30;;;9.90;29.00;;;;;;4889726;29;20186;-77
2024/04/02 02:40:30;;;;;;;6.27;6.07;;;9.90;28.70;;;;;;4883794;29;20441;-79
2024/04/02 02:42:55;;;;;;;6.37;6.17;;;9.90;28.90;;;;;;4884575;29;20213;-79
2024/04/02 02:45:21;;;;;;;6.57;6.37;;;9.80;29.20;;;;;;4889317;29;20437;-79
2024/04/02 02:47:47;;;;;;;6.70;6.50;;;9.80;29.20;;;;;;4883324;29;20438;-78
2024/04/02 02:50:12;;;;;;;6.30;6.10;;;9.80;29.20;;;;;;4893080;29;20205;-79
2024/04/02 02:52:38;;;;;;;6.37;6.13;;;9.80;29.10;;;;;;4887122;29;20309;-77
2024/04/02 02:55:04;;;;;;;6.30;6.10;;;9.90;29.20;;;;;;4883337;29;20194;-79
2024/04/02 02:57:29;;;;;;;6.23;6.03;;;10.00;28.40;;;;;;4883425;29;20201;-78
2024/04/02 02:59:55;;;;;;;6.50;6.10;;;10.00;28.00;;;;;;4890268;29;20431;-79
2024/04/02 03:02:20;;;;;;;5.67;5.57;;;10.10;28.10;;;;;;4890587;29;20248;-79
2024/04/02 03:04:48;;;;;;;6.70;6.50;;;10.20;27.80;;;;;;4882943;29;20213;-79
2024/04/02 03:07:14;;;;;;;6.43;6.23;;;10.10;27.60;;;;;;4882664;29;20587;-79
2024/04/02 03:09:41;;;;;;;6.43;6.23;;;10.10;27.80;;;;;;4882866;29;20438;-78
2024/04/02 03:12:07;;;;;;;7.20;7.00;;;10.00;27.70;;;;;;4877314;29;20474;-78
2024/04/02 03:14:33;;;;;;;6.97;6.77;;;9.90;29.00;;;;;;4887428;29;20510;-79
2024/04/02 03:16:59;;;;;;;6.50;6.27;;;9.90;29.00;;;;;;4888882;29;20426;-77
2024/04/02 03:19:24;;;;;;;6.70;6.50;;;9.90;29.10;;;;;;4883001;29;20182;-78
2024/04/02 03:21:50;;;;;;;7.07;6.57;;;9.90;28.90;;;;;;4883049;29;20666;-78
2024/04/02 03:24:15;;;;;;;7.90;7.60;;;9.80;29.00;;;;;;4882879;29;20253;-79
2024/04/02 03:26:41;;;;;;;7.17;6.97;;;9.80;29.20;;;;;;4889233;29;20189;-79
2024/04/02 03:29:06;;;;;;;7.23;6.83;;;9.80;29.00;;;;;;4893643;29;20182;-78
2024/04/02 03:31:32;;;;;;;7.70;7.40;;;9.80;28.90;;;;;;4902058;29;20189;-79
2024/04/02 03:33:57;;;;;;;7.87;7.67;;;9.90;28.80;;;;;;4897267;29;20210;-78
2024/04/02 03:36:23;;;;;;;7.97;7.60;;;9.80;29.00;;;;;;4882930;29;20193;-79
2024/04/02 03:38:48;;;;;;;7.97;7.77;;;9.80;29.50;;;;;;4889636;29;20224;-78
2024/04/02 03:41:16;;;;;;;7.23;7.03;;;9.90;28.40;;;;;;4895508;29;20547;-79
2024/04/02 03:43:43;;;;;;;7.63;7.43;;;10.00;27.70;;;;;;4880999;29;20690;-79
2024/04/02 03:46:10;;;;;;;7.10;6.90;;;10.00;27.70;;;;;;4888553;29;20458;-79
2024/04/02 03:48:36;;;;;;;7.60;7.40;;;10.00;27.40;;;;;;4882222;29;20426;-79
2024/04/02 03:51:02;;;;;;;7.43;7.17;;;10.00;27.50;;;;;;4887836;29;20418;-78
2024/04/02 03:53:27;;;;;;;7.93;7.63;;;10.00;27.50;;;;;;4881165;29;20470;-80
2024/04/02 03:55:59;;;;;;;8.07;7.67;;;10.10;27.50;;;;;;4887959;29;20422;-78
2024/04/02 03:58:26;;;;;;;7.30;7.10;;;10.10;27.10;;;;;;4882362;29;20546;-78
2024/04/02 04:00:54;;;;;;;7.70;7.40;;;10.10;27.10;;;;;;4882513;29;20927;-78
2024/04/02 04:03:20;;;;;;;7.27;7.07;;;10.00;27.30;;;;;;4893350;29;20450;-78
2024/04/02 04:05:46;;;;;;;6.70;6.50;;;10.10;27.20;;;;;;4881363;29;20783;-79
2024/04/02 04:08:12;;;;;;;7.50;7.30;;;10.10;27.00;;;;;;4881955;29;20430;-79
2024/04/02 04:10:37;;;;;;;7.80;7.60;;;10.10;27.30;;;;;;4891729;29;20434;-78
2024/04/02 04:13:03;;;;;;;7.83;7.63;;;10.10;26.70;;;;;;4881070;29;20240;-78
2024/04/02 04:15:29;;;;;;;7.13;6.87;;;10.00;26.70;;;;;;4880323;29;20189;-78
2024/04/02 04:17:54;;;;;;;7.50;7.30;;;10.00;27.10;;;;;;4881421;29;20431;-79
2024/04/02 04:20:20;;;;;;;7.10;6.90;;;9.90;27.90;;;;;;4880961;29;20558;-79
2024/04/02 04:22:45;;;;;;;7.37;7.17;;;9.90;27.60;;;;;;4885686;29;20214;-78
2024/04/02 04:25:12;;;;;;;8.43;8.13;;;9.90;27.70;;;;;;4887406;29;20192;-78
2024/04/02 04:27:37;;;;;;;7.87;7.67;;;9.80;27.90;;;;;;4896912;29;20655;-79
2024/04/02 04:30:05;;;;;;;7.33;7.13;;;9.70;27.90;;;;;;4896847;29;20438;-78
2024/04/02 04:32:31;;;;;;;6.80;6.60;;;9.70;28.30;;;;;;4915041;29;20218;-78
2024/04/02 04:34:58;;;;;;;6.63;6.43;;;9.70;28.40;;;;;;4901163;29;20422;-77
2024/04/02 04:37:24;;;;;;;7.10;6.73;;;9.60;28.40;;;;;;4880349;29;20458;-77
2024/04/02 04:39:49;;;;;;;6.50;6.30;;;9.60;28.40;;;;;;4880755;29;20949;-77
2024/04/02 04:42:15;;;;;;;6.40;6.20;;;9.70;28.40;;;;;;4880772;29;20182;-76
2024/04/02 04:44:44;;;;;;;6.47;6.20;;;9.70;28.40;;;;;;4883538;29;20217;-76
2024/04/02 04:47:11;;;;;;;7.20;6.90;;;9.70;28.60;;;;;;4881489;29;20670;-78
2024/04/02 04:49:36;;;;;;;6.83;6.63;;;9.60;28.60;;;;;;4880806;29;20422;-76
2024/04/02 04:52:02;;;;;;;7.77;7.57;;;9.60;28.70;;;;;;4881820;29;20477;-77
2024/04/02 04:54:28;;;;;;;6.13;5.93;;;9.60;28.80;;;;;;4883883;29;20241;-78
2024/04/02 04:56:53;;;;;;;6.97;6.73;;;9.60;28.80;;;;;;4886196;29;20415;-78
2024/04/02 04:59:19;;;;;;;7.70;7.40;;;9.50;28.80;;;;;;4879552;29;20559;-78
2024/04/02 05:01:44;;;;;;;7.73;7.50;;;9.50;29.10;;;;;;4896083;29;20284;-81
2024/04/02 05:04:10;;;;;;;7.63;7.33;;;9.40;29.40;;;;;;4887747;29;20228;-78
2024/04/02 05:06:38;;;;;;;8.03;7.23;;;9.40;29.30;;;;;;4886850;29;20194;-78
2024/04/02 05:09:04;;;;;;;6.90;6.70;;;9.40;29.20;;;;;;4884739;29;20622;-78
2024/04/02 05:11:30;;;;;;;6.70;6.50;;;9.40;29.30;;;;;;4886215;29;20454;-78
2024/04/02 05:13:57;;;;;;;6.47;6.17;;;9.50;28.90;;;;;;4881839;29;20280;-78
2024/04/02 05:16:23;;;;;;;7.20;6.93;;;9.50;29.00;;;;;;4887567;29;20280;-78
2024/04/02 05:18:48;;;;;;;7.73;7.50;;;9.50;29.00;;;;;;4888156;29;20453;-78
2024/04/02 05:21:14;;;;;;;6.77;6.57;;;9.50;29.40;;;;;;4885715;29;20206;-79
2024/04/02 05:23:39;;;;;;;7.10;6.90;;;9.50;29.10;;;;;;4918558;23;20744;-81
2024/04/02 05:26:05;;;;;;;7.37;7.17;;;9.60;29.00;;;;;;4920326;29;20203;-81
2024/04/02 05:28:31;;;;;;;6.57;6.30;;;9.60;29.00;;;;;;4902695;29;20188;-80
2024/04/02 05:30:57;;;;;;;6.87;6.67;;;9.60;28.80;;;;;;4920971;29;20433;-81
2024/04/02 05:33:23;;;;;;;6.30;6.10;;;9.60;28.80;;;;;;4922637;29;20657;-80
2024/04/02 05:35:49;;;;;;;6.70;6.40;;;9.60;28.70;;;;;;4920522;29;20432;-79
2024/04/02 05:38:14;;;;;;;6.33;6.13;;;9.60;28.60;;;;;;4904570;29;20437;-81
2024/04/02 05:40:40;;;;;;;6.30;6.10;;;9.60;28.40;;;;;;4912676;29;20189;-82
2024/04/02 05:43:06;;;;;;;6.23;6.03;;;9.70;28.10;;;;;;4912282;29;20583;-80
2024/04/02 05:45:31;;;;;;;6.27;6.07;;;9.70;28.20;;;;;;4906333;29;20208;-79
2024/04/02 05:47:57;;;;;;;6.70;6.40;;;9.70;28.10;;;;;;4918735;29;20204;-81
2024/04/02 05:50:22;;;;;;;7.50;7.23;;;9.70;28.20;;;;;;4912200;29;20199;-81
2024/04/02 05:52:48;;;;;;;6.60;6.40;;;9.70;28.40;;;;;;4911144;29;20242;-81
2024/04/02 05:55:13;;;;;;;7.00;6.70;;;9.80;28.50;;;;;;4919651;29;20244;-80
2024/04/02 05:57:39;;;;;;;7.00;6.70;;;9.80;28.50;;;;;;4907975;29;20238;-79
2024/04/02 06:00:05;;;;;;;6.37;6.17;;;9.80;28.60;;;;;;4901161;29;20261;-81
2024/04/02 06:02:31;;;;;;;7.07;6.87;;;9.70;28.40;;;;;;4917986;29;20942;-80
2024/04/02 06:04:57;;;;;;;7.03;6.73;;;9.70;28.80;;;;;;4910027;29;20432;-81
2024/04/02 06:07:23;;;;;;;6.00;5.80;;;9.70;28.60;;;;;;4905854;29;21184;-80
2024/04/02 06:09:49;;;;;;;6.40;6.20;;;9.80;28.70;;;;;;4900200;29;20449;-81
2024/04/02 06:12:14;;;;;;;7.40;7.20;;;9.80;28.60;;;;;;4916565;29;20228;-80
2024/04/02 06:14:40;;;;;;;6.73;6.53;;;9.80;28.60;;;;;;4917159;29;20256;-80
2024/04/02 06:17:06;;;;;;;7.87;7.47;;;9.80;28.70;;;;;;4907806;29;20184;-78
2024/04/02 06:19:32;;;;;;;7.97;7.67;;;9.90;28.50;;;;;;4909190;29;20759;-81
2024/04/02 06:21:58;;;;;;;8.27;7.93;;;10.00;27.70;;;;;;4907328;29;20620;-79
2024/04/02 06:24:24;;;;;;;7.70;7.50;;;10.00;27.60;;;;;;4913337;29;20461;-80
2024/04/02 06:26:50;;;;;;;7.67;7.30;;;10.10;27.30;;;;;;4915721;29;20740;-80
2024/04/02 06:29:16;;;;;;;7.27;7.07;;;10.20;27.60;;;;;;4920092;29;20437;-78
2024/04/02 06:31:41;;;;;;;7.00;6.80;;;10.30;28.70;;;;;;4903787;29;21046;-80
2024/04/02 06:34:07;;;;;;;7.47;7.17;;;10.30;28.60;;;;;;4923114;29;20693;-80
2024/04/02 06:36:32;;;;;;;6.63;6.37;;;10.20;28.40;;;;;;4918116;29;20211;-81
2024/04/02 06:38:58;;;;;;;7.30;7.10;;;10.20;28.70;;;;;;4917542;29;20261;-79
2024/04/02 06:41:24;;;;;;;7.50;7.30;;;10.20;29.50;;;;;;4921153;29;20237;-80
2024/04/02 06:43:50;;;;;;;6.20;6.00;;;10.10;29.60;;;;;;4913113;29;20213;-80
2024/04/02 06:46:16;;;;;;;7.30;7.00;;;10.10;30.00;;;;;;4925809;29;20215;-80
2024/04/02 06:48:41;;;;;;;6.80;6.60;;;10.10;30.70;;;;;;4927471;29;20425;-81
2024/04/02 06:51:19;;;;;;;7.10;6.80;;;10.10;31.60;;;;;;4913218;29;20195;-80
2024/04/02 06:53:44;;;;;;;6.90;6.70;;;10.10;31.60;;;;;;4909177;29;20312;-80
2024/04/02 06:56:10;;;;;;;7.20;7.00;;;10.00;30.70;;;;;;4911521;29;20472;-79
2024/04/02 06:58:39;;;;;;;6.90;6.70;;;10.00;31.50;;;;;;4909044;29;20243;-80
2024/04/02 07:01:04;;;;;;;10.13;9.63;;;10.00;31.50;;;;;;4910286;29;20184;-78
2024/04/02 07:03:30;;;;;;;7.67;7.47;;;10.00;31.70;;;;;;4920332;29;21112;-79
2024/04/02 07:05:56;;;;;;;7.13;6.83;;;9.90;33.00;;;;;;4920375;29;20200;-79
2024/04/02 07:08:24;;;;;;;6.80;6.60;;;9.90;32.70;;;;;;4903496;29;20192;-79
2024/04/02 07:11:04;;;;;;;7.47;6.90;;;9.90;32.30;;;;;;4911580;29;20203;-79
2024/04/02 07:13:33;;;;;;;5.90;5.70;;;9.90;32.30;;;;;;4935654;29;21108;-82
2024/04/02 07:16:01;;;;;;;7.20;6.60;;;9.90;32.30;;;;;;4913297;29;20441;-79
2024/04/02 07:18:32;;;;;;;6.50;6.17;;;9.90;32.40;;;;;;4919961;29;20433;-79
2024/04/02 07:20:59;;;;;;;6.27;6.07;;;10.00;31.50;;;;;;4912890;29;20504;-80
2024/04/02 07:23:24;;;;;;;6.30;6.10;;;10.10;30.60;;;;;;4922635;29;20464;-79
2024/04/02 07:25:50;;;;;;;5.90;5.60;;;10.20;29.90;;;;;;4924521;29;20433;-80
2024/04/02 07:28:16;;;;;;;6.60;6.20;;;10.30;29.90;;;;;;4909203;29;20220;-79
2024/04/02 07:30:42;;;;;;;6.87;6.67;;;10.40;29.70;;;;;;4912232;29;20189;-79
2024/04/02 07:33:07;;;;;;;7.20;6.80;;;10.40;27.90;;;;;;4931987;29;20211;-79
2024/04/02 07:35:34;;;;;;;6.97;6.67;;;10.40;28.40;;;;;;4918046;29;20468;-81
2024/04/02 07:38:00;;;;;;;6.97;6.77;;;10.50;28.30;;;;;;4910009;29;20180;-80
2024/04/02 07:40:25;;;;;;;7.20;6.80;;;10.60;27.60;;;;;;4910762;29;20435;-80
2024/04/02 07:42:51;;;;;;;7.13;6.63;;;10.50;26.90;;;;;;4920887;29;20692;-81
2024/04/02 07:45:17;;;;;;;7.57;7.13;;;10.60;27.00;;;;;;4914432;29;20199;-80
2024/04/02 07:47:46;;;;;;;7.37;6.83;;;10.50;26.70;;;;;;4933453;29;20635;-80
2024/04/02 07:50:12;;;;;;;7.20;6.90;;;10.50;26.90;;;;;;4920866;29;20188;-80
2024/04/02 07:52:37;;;;;;;6.57;6.27;;;10.50;26.70;;;;;;4920419;29;20468;-79
2024/04/02 07:55:03;;;;;;;7.63;7.23;;;10.60;26.40;;;;;;4911443;29;20192;-80
2024/04/02 07:57:28;;;;;;;8.20;7.27;;;10.60;25.70;;;;;;4920289;29;20192;-80
2024/04/02 07:59:54;;;;;;;6.90;6.60;;;10.60;25.50;;;;;;4928423;29;20196;-79
2024/04/02 08:02:20;;;;;;;7.00;6.70;;;10.60;25.00;;;;;;4903767;29;20196;-80
2024/04/02 08:04:49;;;;;;;6.83;6.53;;;10.70;24.80;;;;;;4908808;29;20208;-80
2024/04/02 08:07:17;;;;;;;7.13;6.63;;;10.80;23.70;;;;;;4920742;29;20196;-80
2024/04/02 08:09:42;;;;;;;7.40;6.80;;;10.90;23.80;;;;;;4913631;29;20449;-80
2024/04/02 08:12:08;;;;;;;7.17;6.87;;;10.90;23.60;;;;;;4910988;29;20468;-80
2024/04/02 08:14:33;;;;;;;7.10;6.80;;;10.90;23.80;;;;;;4920185;29;20280;-82
2024/04/02 08:16:59;;;;;;;6.80;6.50;;;10.90;23.80;;;;;;4907783;29;20181;-80
2024/04/02 08:19:25;;;;;;;7.50;7.10;;;10.90;23.30;;;;;;4918629;29;20188;-81
2024/04/02 08:21:50;;;;;;;7.20;6.80;;;11.00;23.50;;;;;;4909786;29;20181;-79
2024/04/02 08:24:17;;;;;;;6.23;6.03;;;11.10;22.70;;;;;;4904925;29;20233;-81
2024/04/02 08:26:42;;;;;;;6.63;6.23;;;11.20;22.90;;;;;;4931740;29;20462;-82
2024/04/02 08:29:08;;;;;;;6.83;6.50;;;11.30;22.70;;;;;;4928387;29;20204;-81
2024/04/02 08:31:34;;;;;;;6.40;6.00;;;11.40;22.20;;;;;;4916570;29;20217;-81
2024/04/02 08:33:59;;;;;;;7.10;6.70;;;11.40;22.10;;;;;;4917702;29;20283;-82
2024/04/02 08:36:25;;;;;;;7.50;7.10;;;11.40;22.90;;;;;;4917898;29;20191;-81
2024/04/02 08:38:50;;;;;;;7.83;7.23;;;11.50;23.20;;;;;;4925367;29;20173;-82
2024/04/02 08:41:18;;;;;;;7.00;6.60;;;11.60;22.80;;;;;;4931956;29;20189;-80
2024/04/02 08:43:45;;;;;;;7.27;6.90;;;11.70;22.00;;;;;;4930237;29;20605;-80
2024/04/02 08:46:11;;;;;;;8.27;7.47;;;11.60;21.20;;;;;;4922962;29;20460;-80
2024/04/02 08:48:37;;;;;;;7.63;7.03;;;11.60;22.30;;;;;;4920960;29;20452;-80
2024/04/02 08:51:05;;;;;;;6.20;5.90;;;11.50;22.70;;;;;;4927351;29;20428;-79
2024/04/02 08:53:34;;;;;;;7.60;7.20;;;11.60;23.20;;;;;;4911889;29;20255;-81
2024/04/02 08:55:59;;;;;;;7.07;6.60;;;11.50;23.40;;;;;;4914891;29;20481;-79
2024/04/02 08:58:27;;;;;;;7.03;6.50;;;11.60;23.00;;;;;;4916857;29;20865;-80
2024/04/02 09:00:53;;;;;;;7.03;6.73;;;11.60;22.50;;;;;;4923307;29;20173;-82
2024/04/02 09:03:19;;;;;;;7.20;6.80;;;11.70;21.40;;;;;;4899945;29;20445;-82
2024/04/02 09:05:45;;;;;;;7.83;6.53;;;11.90;21.70;;;;;;4913182;29;20432;-82
2024/04/02 09:08:14;;;;;;;6.70;6.40;;;12.00;19.90;;;;;;4941357;29;20487;-82
2024/04/02 09:10:41;;;;;;;7.10;6.60;;;12.00;20.20;;;;;;4920544;29;20424;-80
2024/04/02 09:13:06;;;;;;;7.20;6.80;;;12.10;19.80;;;;;;4906841;29;20558;-82
2024/04/02 09:15:35;;;;;;;6.60;6.30;;;12.30;19.20;;;;;;4914922;29;20833;-82
2024/04/02 09:18:01;;;;;;;6.43;6.03;;;12.50;19.10;;;;;;4914589;29;20181;-82
2024/04/02 09:20:26;;;;;;;7.00;6.60;;;12.70;17.10;;;;;;4924071;29;20452;-82
2024/04/02 09:22:52;;;;;;;7.43;7.03;;;12.80;17.50;;;;;;4929986;29;20228;-81
2024/04/02 09:25:21;;;;;;;6.43;6.03;;;12.90;17.40;;;;;;4925550;29;20188;-81
2024/04/02 09:27:48;;;;;;;7.40;6.83;;;12.80;17.40;;;;;;4923670;29;20417;-82
2024/04/02 09:30:14;;;;;;;6.67;6.20;;;12.80;17.00;;;;;;4916102;29;20433;-81
2024/04/02 09:32:42;;;;;;;6.33;6.03;;;12.90;16.20;;;;;;4920630;29;20607;-82
2024/04/02 09:35:24;;;;;;;6.17;5.70;;;12.90;16.20;;;;;;4926035;29;20173;-83
2024/04/02 09:37:51;;;;;;;6.77;6.47;;;12.80;16.20;;;;;;4914361;29;20424;-81
2024/04/02 09:40:18;;;;;;;6.50;6.20;;;12.80;16.80;;;;;;4924521;29;20448;-83
2024/04/02 09:42:47;;;;;;;6.70;6.50;;;13.10;16.40;;;;;;4912717;29;20436;-82
2024/04/02 09:45:13;;;;;;;6.53;6.23;;;13.20;15.50;;;;;;4922672;29;20429;-82
2024/04/02 09:47:42;;;;;;;6.17;5.77;;;13.30;15.40;;;;;;4924497;29;20419;-82
2024/04/02 09:50:08;;;;;;;6.40;6.10;;;13.50;15.00;;;;;;4929297;29;20417;-81
2024/04/02 09:52:34;;;;;;;5.90;5.63;;;13.50;14.70;;;;;;4931206;29;20468;-81
2024/04/02 09:55:01;;;;;;;6.97;6.37;;;13.20;14.20;;;;;;4930954;29;20421;-79
2024/04/02 09:57:26;;;;;;;7.23;6.60;;;13.10;15.20;;;;;;4922117;29;20429;-80
2024/04/02 09:59:52;;;;;;;5.43;5.20;;;13.00;15.10;;;;;;4925741;29;20905;-81
2024/04/02 10:02:27;;;;;;;5.17;4.77;;;13.00;15.90;;;;;;4912341;29;20240;-81
2024/04/02 10:04:54;;;;;;;6.33;5.83;;;13.00;15.70;;;;;;4928384;29;20196;-81
2024/04/02 10:07:27;;;;;;;5.80;5.60;;;13.20;15.50;;;;;;4918385;29;20428;-81
2024/04/02 10:10:12;;;;;;;6.37;5.87;;;13.20;15.00;;;;;;4927416;29;21041;-80
2024/04/02 10:12:39;;;;;;;7.13;6.80;;;13.30;13.60;;;;;;4903304;29;21022;-81
2024/04/02 10:15:10;;;;;;;6.47;6.17;;;13.20;14.20;;;;;;4926203;29;20427;-81
2024/04/02 10:17:37;;;;;;;6.23;6.03;;;13.20;14.40;;;;;;4925525;29;20421;-81
2024/04/02 10:20:24;;;;;;;6.73;6.30;;;13.20;13.90;;;;;;4917208;29;20420;-81
2024/04/02 10:22:55;;;;;;;7.40;6.80;;;13.10;13.60;;;;;;4914963;29;20428;-82
2024/04/02 10:25:24;;;;;;;7.57;6.87;;;13.20;13.40;;;;;;4927853;29;20416;-80
2024/04/02 10:27:52;;;;;;;7.40;7.00;;;13.40;13.00;;;;;;4926310;29;20416;-81
2024/04/02 10:30:22;;;;;;;7.00;6.70;;;13.50;12.10;;;;;;4918076;29;20417;-81
2024/04/02 10:32:49;;;;;;;6.37;5.97;;;13.50;12.10;;;;;;4917832;29;20471;-82
2024/04/02 10:35:35;;;;;;;6.50;6.10;;;13.50;12.30;;;;;;4918293;29;20417;-82
2024/04/02 10:38:00;;;;;;;6.20;5.90;;;13.50;12.40;;;;;;4937549;29;20420;-82
2024/04/02 10:40:27;;;;;;;6.20;5.83;;;13.50;11.70;;;;;;4917857;29;20440;-82
2024/04/02 10:42:53;;;;;;;7.10;6.60;;;13.50;11.80;;;;;;4925816;29;20697;-82
2024/04/02 10:45:20;;;;;;;6.13;5.93;;;13.40;11.70;;;;;;4912122;29;20487;-82
2024/04/02 10:47:46;;;;;;;7.10;6.70;;;13.30;11.70;;;;;;4927298;29;20192;-80
2024/04/02 10:50:13;;;;;;;6.20;5.97;;;13.30;12.00;;;;;;4926300;29;20452;-82
2024/04/02 10:52:38;;;;;;;8.23;7.57;;;13.20;13.30;;;;;;4924423;29;20472;-81
2024/04/02 10:55:05;;;;;;;7.40;6.67;;;13.10;15.00;;;;;;4907909;29;20433;-81
2024/04/02 10:57:34;;;;;;;6.60;6.37;;;13.10;15.60;;;;;;4935565;29;20187;-82
2024/04/02 11:00:02;;;;;;;5.87;5.57;;;13.20;15.40;;;;;;4921203;29;20460;-82
2024/04/02 11:02:28;;;;;;;6.93;6.70;;;13.20;15.20;;;;;;4910872;29;20440;-83
2024/04/02 11:04:55;;;;;;;6.20;5.90;;;13.20;14.80;;;;;;4915786;29;21040;-82
2024/04/02 11:07:22;;;;;;;6.30;6.00;;;13.30;15.00;;;;;;4927908;29;20441;-83
2024/04/02 11:09:48;;;;;;;6.80;6.50;;;13.50;15.50;;;;;;4930871;29;20431;-82
2024/04/02 11:12:15;;;;;;;6.63;6.33;;;13.60;16.20;;;;;;4939359;29;20510;-82
2024/04/02 11:14:41;;;;;;;6.77;6.27;;;13.70;15.20;;;;;;4940128;29;20499;-83
2024/04/02 11:17:08;;;;;;;6.80;6.50;;;13.80;14.60;;;;;;4939241;29;20432;-82
2024/04/02 11:19:35;;;;;;;6.00;5.80;;;13.70;15.00;;;;;;4912011;29;20197;-81
2024/04/02 11:25:46;;;;;;;6.87;6.60;;;13.50;17.30;;;;;;4929344;23;20588;-80
2024/04/02 11:28:31;;;;;;;6.60;6.30;;;13.50;15.60;;;;;;4861700;29;20422;-79
2024/04/02 11:30:57;;;;;;;6.97;6.67;;;13.50;14.60;;;;;;4901926;29;20893;-79
2024/04/02 11:46:15;;;;;;;6.90;6.40;;;13.90;12.80;;;;;;4917759;29;20473;-79
2024/04/02 11:48:40;;;;;;;6.00;5.70;;;13.90;12.50;;;;;;4917613;29;20425;-79
2024/04/02 11:51:07;;;;;;;7.77;7.27;;;14.00;12.70;;;;;;4919633;29;20193;-79
2024/04/02 11:53:32;;;;;;;6.90;6.60;;;14.20;12.60;;;;;;4910499;29;20240;-78
2024/04/02 11:55:58;;;;;;;6.80;6.30;;;14.10;12.00;;;;;;4919530;29;20425;-80
2024/04/02 12:01:08;;;;;;;7.00;6.70;;;14.10;11.70;;;;;;4919477;29;20203;-80
2024/04/02 12:03:33;;;;;;;6.70;6.20;;;14.10;11.80;;;;;;4909541;29;20461;-81
2024/04/02 12:05:58;;;;;;;6.53;6.23;;;14.10;11.50;;;;;;4918965;29;20596;-79
2024/04/02 12:08:28;;;;;;;5.73;5.57;;;13.90;11.50;;;;;;4935620;29;20211;-81
2024/04/02 12:10:53;;;;;;;6.43;6.23;;;13.80;11.50;;;;;;4924693;29;20243;-80
2024/04/02 12:13:19;;;;;;;6.33;5.93;;;13.90;12.30;;;;;;4910128;29;20942;-80
2024/04/02 12:15:44;;;;;;;7.27;6.73;;;14.00;12.30;;;;;;4909894;29;20207;-80
2024/04/02 12:18:10;;;;;;;6.53;6.13;;;14.10;12.50;;;;;;4918964;29;20195;-80
2024/04/02 12:20:48;;;;;;;6.27;6.07;;;14.10;12.50;;;;;;4909773;29;20569;-80
2024/04/02 12:23:13;;;;;;;6.17;5.83;;;14.20;11.80;;;;;;4908941;29;20208;-80
2024/04/02 12:25:39;;;;;;;5.80;5.60;;;14.30;12.00;;;;;;4909975;29;20444;-81
2024/04/02 12:28:04;;;;;;;6.50;6.10;;;14.40;12.30;;;;;;4918868;29;20562;-79
2024/04/02 12:30:31;;;;;;;6.37;6.07;;;14.50;10.80;;;;;;4903211;29;20203;-80
2024/04/02 12:32:59;;;;;;;6.40;6.10;;;14.50;9.80;;;;;;4907742;29;20219;-80
2024/04/02 12:35:25;;;;;;;6.60;6.20;;;14.40;10.40;;;;;;4910133;29;20457;-80
2024/04/02 12:37:51;;;;;;;6.07;5.77;;;14.20;11.00;;;;;;4925303;29;20429;-81
2024/04/02 12:40:17;;;;;;;6.40;6.10;;;14.10;12.00;;;;;;4919239;29;20188;-80
2024/04/02 12:42:42;;;;;;;6.30;6.00;;;13.90;14.20;;;;;;4918606;29;20433;-80
2024/04/02 12:45:08;;;;;;;5.60;5.40;;;13.70;17.00;;;;;;4901066;29;20241;-79
2024/04/02 12:47:33;;;;;;;6.63;6.33;;;13.70;18.50;;;;;;4932439;29;20196;-79
2024/04/02 12:50:00;;;;;;;6.40;6.20;;;13.60;20.70;;;;;;4918958;29;20571;-80
2024/04/02 12:52:25;;;;;;;6.50;5.93;;;13.50;19.90;;;;;;4918651;29;20279;-79
2024/04/02 12:54:52;;;;;;;5.90;5.70;;;13.50;18.40;;;;;;4901658;29;20980;-78
2024/04/02 12:57:17;;;;;;;6.47;6.07;;;13.50;16.90;;;;;;4918357;29;20177;-79
2024/04/02 12:59:43;;;;;;;6.37;6.07;;;13.60;16.20;;;;;;4901770;29;20433;-79
2024/04/02 13:02:08;;;;;;;7.17;6.67;;;13.60;15.10;;;;;;4901881;29;20706;-79
2024/04/02 13:04:34;;;;;;;6.30;6.10;;;13.60;14.90;;;;;;4903499;29;20278;-78